createdAt,value
2018-02-27T00:00:46.901Z,-2.00
2018-02-27T00:03:48.120Z,-2.10
2018-02-27T00:06:49.357Z,-2.20
2018-02-27T00:09:50.575Z,-2.10
2018-02-27T00:12:51.813Z,-2.30
2018-02-27T00:15:53.770Z,-2.30
2018-02-27T00:18:54.973Z,-2.30
2018-02-27T00:21:56.194Z,-2.20
2018-02-27T00:24:57.429Z,-2.20
2018-02-27T00:27:58.620Z,-2.10
2018-02-27T00:30:59.848Z,-2.10
2018-02-27T00:34:01.116Z,-2.20
2018-02-27T00:37:02.373Z,-2.20
2018-02-27T00:40:03.616Z,-2.20
2018-02-27T00:43:04.860Z,-2.30
2018-02-27T00:46:06.844Z,-2.50
2018-02-27T00:49:08.809Z,-2.50
2018-02-27T00:52:10.020Z,-2.50
2018-02-27T00:55:11.248Z,-2.50
2018-02-27T00:58:12.441Z,-2.40
2018-02-27T01:01:13.836Z,-2.30
2018-02-27T01:04:15.069Z,-2.20
2018-02-27T01:07:16.274Z,-2.30
2018-02-27T01:10:17.497Z,-2.30
2018-02-27T01:13:18.753Z,-2.30
2018-02-27T01:16:19.949Z,-2.30
2018-02-27T01:19:21.265Z,-2.30
2018-02-27T01:22:23.193Z,-2.30
2018-02-27T01:25:24.416Z,-2.40
2018-02-27T01:28:25.690Z,-2.30
2018-02-27T01:31:27.673Z,-2.20
2018-02-27T01:34:28.869Z,-2.20
2018-02-27T01:37:30.087Z,-2.40
2018-02-27T01:40:31.309Z,-2.50
2018-02-27T01:43:32.510Z,-2.40
2018-02-27T01:46:33.736Z,-2.50
2018-02-27T01:49:35.044Z,-2.60
2018-02-27T01:52:36.257Z,-2.60
2018-02-27T01:55:37.462Z,-2.60
2018-02-27T01:58:38.656Z,-2.60
2018-02-27T02:01:39.881Z,-2.70
2018-02-27T02:04:41.104Z,-2.80
2018-02-27T02:07:42.341Z,-2.80
2018-02-27T02:10:43.576Z,-2.70
2018-02-27T02:13:44.796Z,-2.70
2018-02-27T02:16:46.024Z,-2.70
2018-02-27T02:19:47.225Z,-2.80
2018-02-27T02:22:48.425Z,-2.80
2018-02-27T02:25:49.676Z,-2.70
2018-02-27T02:28:51.613Z,-3.00
2018-02-27T02:31:52.820Z,-3.00
2018-02-27T02:34:54.017Z,-2.90
2018-02-27T02:37:55.222Z,-3.00
2018-02-27T02:40:57.188Z,-3.00
2018-02-27T02:43:58.385Z,-2.90
2018-02-27T02:46:59.593Z,-2.90
2018-02-27T02:50:00.788Z,-2.90
2018-02-27T02:53:02.734Z,-3.00
2018-02-27T02:56:03.996Z,-3.00
2018-02-27T02:59:05.207Z,-3.10
2018-02-27T03:02:07.200Z,-3.20
2018-02-27T03:05:08.404Z,-3.10
2018-02-27T03:08:09.605Z,-3.20
2018-02-27T03:11:11.554Z,-3.00
2018-02-27T03:14:12.765Z,-3.10
2018-02-27T03:17:14.004Z,-3.20
2018-02-27T03:20:15.964Z,-3.30
2018-02-27T03:23:17.164Z,-3.30
2018-02-27T03:26:19.109Z,-3.30
2018-02-27T03:29:20.319Z,-3.30
2018-02-27T03:32:21.513Z,-3.30
2018-02-27T03:35:22.744Z,-3.40
2018-02-27T03:38:23.944Z,-3.50
2018-02-27T03:41:25.175Z,-3.50
2018-02-27T03:44:26.373Z,-3.40
2018-02-27T03:47:27.581Z,-3.60
2018-02-27T03:50:28.813Z,-3.60
2018-02-27T03:53:30.032Z,-3.50
2018-02-27T03:56:31.269Z,-3.60
2018-02-27T03:59:32.480Z,-3.50
2018-02-27T04:02:33.715Z,-3.60
2018-02-27T04:05:34.938Z,-3.70
2018-02-27T04:08:36.877Z,-3.60
2018-02-27T04:11:38.821Z,-3.60
2018-02-27T04:14:40.028Z,-3.60
2018-02-27T04:17:41.256Z,-3.60
2018-02-27T04:20:42.465Z,-3.50
2018-02-27T04:23:43.675Z,-3.60
2018-02-27T04:26:44.877Z,-3.90
2018-02-27T04:29:46.069Z,-3.70
2018-02-27T04:32:48.017Z,-3.70
2018-02-27T04:35:49.233Z,-3.70
2018-02-27T04:38:50.452Z,-3.80
2018-02-27T04:41:51.668Z,-3.70
2018-02-27T04:44:52.883Z,-3.60
2018-02-27T04:47:54.077Z,-3.70
2018-02-27T04:50:55.303Z,-3.70
2018-02-27T04:53:56.501Z,-3.70
2018-02-27T04:56:58.337Z,-3.70
2018-02-27T04:59:59.592Z,-3.70
2018-02-27T05:03:00.825Z,-3.70
2018-02-27T05:06:02.045Z,-3.80
2018-02-27T05:09:03.998Z,-3.90
2018-02-27T05:12:05.219Z,-4.00
2018-02-27T05:15:06.436Z,-4.00
2018-02-27T05:18:07.673Z,-3.90
2018-02-27T05:21:08.906Z,-4.10
2018-02-27T05:24:10.098Z,-4.10
2018-02-27T05:27:11.317Z,-4.10
2018-02-27T05:30:12.525Z,-4.20
2018-02-27T05:33:13.733Z,-4.20
2018-02-27T05:36:15.672Z,-4.30
2018-02-27T05:39:16.885Z,-4.30
2018-02-27T05:42:18.088Z,-4.30
2018-02-27T05:45:19.291Z,-4.40
2018-02-27T05:48:21.243Z,-4.40
2018-02-27T05:51:22.467Z,-4.40
2018-02-27T05:54:23.692Z,-4.50
2018-02-27T05:57:25.637Z,-4.50
2018-02-27T06:00:26.841Z,-4.50
2018-02-27T06:03:28.812Z,-4.40
2018-02-27T06:06:30.779Z,-4.50
2018-02-27T06:09:32.013Z,-4.50
2018-02-27T06:12:33.256Z,-4.60
2018-02-27T06:15:34.473Z,-4.60
2018-02-27T06:18:35.661Z,-4.40
2018-02-27T06:21:36.893Z,-4.50
2018-02-27T06:24:38.080Z,-4.70
2018-02-27T06:27:39.304Z,-4.50
2018-02-27T06:30:40.535Z,-4.50
2018-02-27T06:33:41.740Z,-4.60
2018-02-27T06:36:43.693Z,-4.70
2018-02-27T06:39:44.904Z,-4.70
2018-02-27T06:42:46.871Z,-4.70
2018-02-27T06:45:48.836Z,-4.50
2018-02-27T06:48:50.044Z,-4.50
2018-02-27T06:51:51.273Z,-4.50
2018-02-27T06:54:53.205Z,-4.60
2018-02-27T06:57:54.432Z,-4.60
2018-02-27T07:00:55.660Z,-4.60
2018-02-27T07:03:56.875Z,-4.60
2018-02-27T07:06:58.101Z,-4.60
2018-02-27T07:10:00.079Z,-4.50
2018-02-27T07:13:02.052Z,-4.40
2018-02-27T07:16:03.279Z,-4.40
2018-02-27T07:19:04.499Z,-4.50
2018-02-27T07:22:06.449Z,-4.40
2018-02-27T07:25:07.670Z,-4.40
2018-02-27T07:28:08.884Z,-4.20
2018-02-27T07:31:10.103Z,-4.20
2018-02-27T07:34:11.311Z,-4.10
2018-02-27T07:37:13.284Z,-4.00
2018-02-27T07:40:14.476Z,-4.00
2018-02-27T07:43:15.677Z,-3.90
2018-02-27T07:46:16.878Z,-4.00
2018-02-27T07:49:18.821Z,-3.80
2018-02-27T07:52:20.043Z,-3.80
2018-02-27T07:55:21.249Z,-3.70
2018-02-27T07:58:22.460Z,-3.70
2018-02-27T08:01:24.416Z,-3.70
2018-02-27T08:04:25.626Z,-3.80
2018-02-27T08:07:26.840Z,-3.70
2018-02-27T08:10:28.037Z,-3.70
2018-02-27T08:13:29.233Z,-3.70
2018-02-27T08:16:30.437Z,-3.70
2018-02-27T08:19:32.373Z,-3.70
2018-02-27T08:22:33.570Z,-3.70
2018-02-27T08:25:34.796Z,-3.60
2018-02-27T08:28:36.049Z,-3.40
2018-02-27T08:31:37.964Z,-3.30
2018-02-27T08:34:39.200Z,-3.40
2018-02-27T08:37:40.451Z,-3.80
2018-02-27T08:40:42.380Z,-3.50
2018-02-27T08:43:43.591Z,-3.50
2018-02-27T08:46:44.813Z,-3.40
2018-02-27T08:49:46.749Z,-3.50
2018-02-27T08:52:47.990Z,-3.50
2018-02-27T08:55:49.209Z,7.40
2018-02-27T08:58:51.163Z,3.50
2018-02-27T09:01:52.395Z,3.50
2018-02-27T09:04:53.593Z,0.80
2018-02-27T09:07:54.820Z,-0.60
2018-02-27T09:10:56.026Z,-1.40
2018-02-27T09:13:57.236Z,-1.70
2018-02-27T09:16:58.468Z,-2.00
2018-02-27T09:20:00.444Z,-2.10
2018-02-27T09:23:02.404Z,-2.30
2018-02-27T09:26:03.649Z,-2.40
2018-02-27T09:29:04.874Z,-2.30
2018-02-27T09:32:06.103Z,-2.30
2018-02-27T09:35:07.297Z,-2.30
2018-02-27T09:38:08.529Z,-2.20
2018-02-27T09:41:09.720Z,-2.40
2018-02-27T09:44:10.917Z,-2.50
2018-02-27T09:47:12.155Z,-2.20
2018-02-27T09:50:13.365Z,-2.20
2018-02-27T09:53:14.604Z,-2.20
2018-02-27T09:56:15.832Z,-2.20
2018-02-27T09:59:17.055Z,-2.00
2018-02-27T10:02:18.268Z,-2.00
2018-02-27T10:05:19.484Z,-2.00
2018-02-27T10:08:21.103Z,-1.90
2018-02-27T10:11:22.376Z,-1.80
2018-02-27T10:14:23.557Z,-1.70
2018-02-27T10:17:24.765Z,-1.80
2018-02-27T10:20:26.722Z,-1.70
2018-02-27T10:23:27.942Z,-1.70
2018-02-27T10:26:29.167Z,-1.60
2018-02-27T10:29:38.066Z,-1.60
2018-02-27T10:32:39.284Z,-1.60
2018-02-27T10:35:40.486Z,-1.60
2018-02-27T10:38:41.708Z,-1.40
2018-02-27T10:41:42.909Z,-1.40
2018-02-27T10:44:44.109Z,-1.40
2018-02-27T10:47:53.105Z,-1.20
2018-02-27T10:50:54.319Z,-1.20
2018-02-27T10:53:56.268Z,-0.90
2018-02-27T10:56:57.478Z,-0.90
2018-02-27T10:59:58.704Z,-0.80
2018-02-27T11:02:59.902Z,-0.40
2018-02-27T11:06:01.124Z,-0.30
2018-02-27T11:09:02.367Z,-0.20
2018-02-27T11:12:03.591Z,-0.20
2018-02-27T11:15:04.808Z,-0.20
2018-02-27T11:18:06.129Z,-0.20
2018-02-27T11:21:07.341Z,-0.10
2018-02-27T11:24:08.541Z,-0.10
2018-02-27T11:27:09.749Z,0.00
2018-02-27T11:30:10.942Z,0.20
2018-02-27T11:33:12.893Z,0.20
2018-02-27T11:36:14.112Z,0.20
2018-02-27T11:39:15.319Z,0.30
2018-02-27T11:42:16.525Z,0.40
2018-02-27T11:45:17.768Z,0.40
2018-02-27T11:48:19.723Z,0.60
2018-02-27T11:51:20.952Z,0.60
2018-02-27T11:54:22.177Z,0.80
2018-02-27T11:57:24.129Z,0.80
2018-02-27T12:00:25.336Z,0.80
2018-02-27T12:03:26.537Z,0.70
2018-02-27T12:06:27.767Z,0.90
2018-02-27T12:09:28.970Z,0.70
2018-02-27T12:12:30.169Z,0.80
2018-02-27T12:15:32.141Z,0.70
2018-02-27T12:18:33.329Z,0.70
2018-02-27T12:21:34.554Z,0.70
2018-02-27T12:24:35.773Z,0.70
2018-02-27T12:27:36.986Z,0.70
2018-02-27T12:30:38.201Z,0.90
2018-02-27T12:33:39.397Z,0.70
2018-02-27T12:36:40.626Z,1.00
2018-02-27T12:39:41.844Z,1.10
2018-02-27T12:42:43.789Z,1.30
2018-02-27T12:45:45.008Z,1.20
2018-02-27T12:48:46.232Z,1.20
2018-02-27T12:51:47.437Z,1.10
2018-02-27T12:54:48.626Z,0.80
2018-02-27T12:57:49.833Z,0.70
2018-02-27T13:00:51.792Z,1.00
2018-02-27T13:03:52.985Z,0.90
2018-02-27T13:06:54.935Z,1.30
2018-02-27T13:13:04.046Z,1.30
2018-02-27T13:16:06.012Z,1.50
2018-02-27T13:19:07.227Z,1.50
2018-02-27T13:22:08.433Z,1.70
2018-02-27T13:25:09.653Z,1.40
2018-02-27T13:28:10.914Z,1.10
2018-02-27T13:31:12.289Z,0.80
2018-02-27T13:34:13.508Z,0.60
2018-02-27T13:37:15.461Z,0.30
2018-02-27T13:40:16.674Z,0.30
2018-02-27T13:43:17.869Z,0.20
2018-02-27T13:46:19.108Z,0.10
2018-02-27T13:49:24.844Z,0.10
2018-02-27T13:52:21.614Z,0.00
2018-02-27T13:55:22.768Z,-0.10
2018-02-27T13:58:23.992Z,-0.10
2018-02-27T14:01:25.213Z,0.00
2018-02-27T14:04:26.440Z,0.20
2018-02-27T14:07:27.736Z,0.20
2018-02-27T14:10:28.961Z,0.40
2018-02-27T14:13:30.893Z,0.70
2018-02-27T14:16:32.124Z,0.60
2018-02-27T14:19:33.348Z,0.80
2018-02-27T14:22:35.161Z,1.10
2018-02-27T14:25:38.225Z,0.90
2018-02-27T14:28:40.150Z,0.90
2018-02-27T14:31:41.948Z,0.80
2018-02-27T14:34:43.782Z,0.50
2018-02-27T14:37:45.681Z,0.50
2018-02-27T14:40:46.973Z,0.30
2018-02-27T14:43:50.112Z,0.70
2018-02-27T14:46:51.683Z,0.80
2018-02-27T14:49:53.024Z,0.90
2018-02-27T14:52:54.601Z,0.70
2018-02-27T14:55:56.589Z,0.50
2018-02-27T14:58:58.400Z,0.40
2018-02-27T15:01:59.660Z,0.50
2018-02-27T15:05:01.839Z,0.60
2018-02-27T15:08:03.081Z,0.60
2018-02-27T15:11:04.788Z,0.40
2018-02-27T15:14:07.229Z,0.00
2018-02-27T15:17:08.493Z,0.00
2018-02-27T15:20:09.781Z,-0.10
2018-02-27T15:23:11.095Z,-0.20
2018-02-27T15:26:12.328Z,-0.20
2018-02-27T15:29:14.330Z,-0.30
2018-02-27T15:32:15.580Z,-0.30
2018-02-27T15:35:17.534Z,-0.20
2018-02-27T15:38:18.768Z,-0.20
2018-02-27T15:41:20.168Z,-0.30
2018-02-27T15:44:22.136Z,-0.20
2018-02-27T15:47:23.390Z,-0.30
2018-02-27T15:50:24.613Z,0.10
2018-02-27T15:53:25.825Z,0.50
2018-02-27T15:56:27.060Z,0.30
2018-02-27T15:59:28.280Z,0.10
2018-02-27T16:02:30.234Z,-0.30
2018-02-27T16:05:31.445Z,-0.30
2018-02-27T16:08:32.694Z,-0.40
2018-02-27T16:11:33.953Z,-0.60
2018-02-27T16:14:35.199Z,-0.60
2018-02-27T16:17:37.201Z,-0.50
2018-02-27T16:20:38.427Z,-0.40
2018-02-27T16:23:39.669Z,-0.50
2018-02-27T16:26:40.901Z,-0.50
2018-02-27T16:29:42.140Z,-0.60
2018-02-27T16:32:44.111Z,-0.60
2018-02-27T16:35:46.076Z,-0.60
2018-02-27T16:38:47.308Z,-0.70
2018-02-27T16:41:48.513Z,-0.70
2018-02-27T16:44:50.460Z,-0.70
2018-02-27T16:47:51.680Z,-0.70
2018-02-27T16:50:52.908Z,-0.70
2018-02-27T16:53:54.174Z,-0.80
2018-02-27T16:56:56.153Z,-0.80
2018-02-27T16:59:58.124Z,-0.80
2018-02-27T17:02:59.365Z,-0.80
2018-02-27T17:06:01.340Z,-0.80
2018-02-27T17:09:02.611Z,-0.80
2018-02-27T17:12:03.821Z,-0.90
2018-02-27T17:15:05.748Z,-0.90
2018-02-27T17:18:07.073Z,-0.90
2018-02-27T17:21:08.281Z,-0.90
2018-02-27T17:24:09.478Z,-1.00
2018-02-27T17:27:11.445Z,-1.10
2018-02-27T17:30:13.406Z,-1.00
2018-02-27T17:33:14.656Z,-1.00
2018-02-27T17:36:15.892Z,-1.10
2018-02-27T17:39:17.136Z,-1.00
2018-02-27T17:42:18.388Z,-1.00
2018-02-27T17:45:20.379Z,-1.10
2018-02-27T17:48:22.373Z,-1.20
2018-02-27T17:51:23.732Z,-1.20
2018-02-27T17:54:25.446Z,-1.20
2018-02-27T17:57:27.217Z,-1.20
2018-02-27T18:00:28.553Z,-1.10
2018-02-27T18:03:31.208Z,-1.10
2018-02-27T18:06:32.525Z,-1.20
2018-02-27T18:09:33.905Z,-0.80
2018-02-27T18:12:35.266Z,-0.60
2018-02-27T18:15:36.566Z,-1.00
2018-02-27T18:18:37.809Z,-1.00
2018-02-27T18:21:39.095Z,-1.20
2018-02-27T18:24:40.321Z,-1.50
2018-02-27T18:27:41.620Z,-1.60
2018-02-27T18:30:42.896Z,-1.70
2018-02-27T18:33:44.160Z,-1.60
2018-02-27T18:36:46.141Z,-1.80
2018-02-27T18:39:48.118Z,-1.80
2018-02-27T18:42:49.468Z,-1.80
2018-02-27T18:45:50.724Z,-1.80
2018-02-27T18:48:52.010Z,-1.80
2018-02-27T18:51:53.245Z,-1.80
2018-02-27T18:54:54.475Z,-1.80
2018-02-27T18:57:55.710Z,-1.90
2018-02-27T19:00:57.723Z,-1.80
2018-02-27T19:03:58.949Z,-1.80
2018-02-27T19:07:00.969Z,-1.70
2018-02-27T19:10:02.261Z,-1.80
2018-02-27T19:13:03.537Z,-1.70
2018-02-27T19:16:04.851Z,-1.70
2018-02-27T19:19:06.082Z,-1.60
2018-02-27T19:22:08.095Z,-1.70
2018-02-27T19:25:09.325Z,-1.70
2018-02-27T19:28:11.341Z,-1.70
2018-02-27T19:31:12.595Z,-1.80
2018-02-27T19:34:13.838Z,-1.80
2018-02-27T19:37:15.831Z,-1.70
2018-02-27T19:40:17.033Z,-1.70
2018-02-27T19:43:18.249Z,-1.70
2018-02-27T19:46:20.229Z,-1.80
2018-02-27T19:49:22.225Z,-1.80
2018-02-27T19:52:23.464Z,-1.80
2018-02-27T19:55:25.419Z,-1.90
2018-02-27T19:58:26.630Z,-2.00
2018-02-27T20:01:27.849Z,-1.90
2018-02-27T20:04:29.058Z,-1.80
2018-02-27T20:07:30.285Z,-1.80
2018-02-27T20:10:32.270Z,-1.90
2018-02-27T20:13:34.235Z,-1.90
2018-02-27T20:16:35.465Z,-2.00
2018-02-27T20:19:36.684Z,-2.00
2018-02-27T20:22:44.839Z,-1.80
2018-02-27T20:25:46.106Z,-1.80
2018-02-27T20:28:53.371Z,-1.60
2018-02-27T20:31:55.351Z,-1.60
2018-02-27T20:34:57.305Z,-1.70
2018-02-27T20:37:58.538Z,-1.70
2018-02-27T20:40:59.754Z,-1.80
2018-02-27T20:44:01.727Z,-1.80
2018-02-27T20:47:03.686Z,-1.70
2018-02-27T20:50:04.926Z,-1.80
2018-02-27T20:53:06.164Z,-1.80
2018-02-27T20:56:07.377Z,-1.70
2018-02-27T20:59:08.576Z,-1.80
2018-02-27T21:02:10.552Z,-1.80
2018-02-27T21:05:12.545Z,-1.80
2018-02-27T21:08:13.751Z,-1.80
2018-02-27T21:11:14.950Z,-1.70
2018-02-27T21:14:16.932Z,-1.70
2018-02-27T21:17:18.890Z,-1.70
2018-02-27T21:20:20.118Z,-1.70
2018-02-27T21:23:21.362Z,-1.70
2018-02-27T21:26:22.593Z,-1.80
2018-02-27T21:29:24.560Z,-1.80
2018-02-27T21:32:25.874Z,-1.80
2018-02-27T21:35:27.683Z,-1.80
2018-02-27T21:38:30.172Z,-1.90
2018-02-27T21:41:32.376Z,-2.00
2018-02-27T21:44:34.690Z,-2.00
2018-02-27T21:47:37.201Z,-2.00
2018-02-27T21:50:39.848Z,-2.00
2018-02-27T21:53:42.508Z,-1.80
2018-02-27T21:56:43.805Z,-2.00
2018-02-27T21:59:45.575Z,-2.10
2018-02-27T22:02:48.045Z,-2.00
2018-02-27T22:05:50.248Z,-2.10
2018-02-27T22:08:52.082Z,-2.00
2018-02-27T22:11:53.313Z,-2.00
2018-02-27T22:14:55.302Z,-2.00
2018-02-27T22:17:57.778Z,-2.10
2018-02-27T22:20:59.033Z,-2.10
2018-02-27T22:24:00.288Z,-2.10
2018-02-27T22:27:02.025Z,-2.10
2018-02-27T22:30:03.278Z,-2.10
2018-02-27T22:33:04.553Z,-2.10
2018-02-27T22:36:05.784Z,-2.10
2018-02-27T22:39:07.838Z,-2.00
2018-02-27T22:42:09.072Z,-2.00
2018-02-27T22:45:10.290Z,-2.10
2018-02-27T22:48:12.264Z,-2.20
2018-02-27T22:51:14.244Z,-2.20
2018-02-27T22:54:16.275Z,-2.20
2018-02-27T22:57:17.504Z,-2.20
2018-02-27T23:00:35.962Z,-2.30
2018-02-27T23:03:37.906Z,-2.30
2018-02-27T23:06:39.118Z,-2.30
2018-02-27T23:09:40.332Z,-2.20
2018-02-27T23:12:41.542Z,-2.20
2018-02-27T23:15:42.776Z,-2.00
2018-02-27T23:18:43.992Z,-2.10
2018-02-27T23:21:45.233Z,-2.30
2018-02-27T23:25:03.070Z,-2.10
2018-02-27T23:28:07.956Z,-2.10
2018-02-27T23:31:09.925Z,-2.10
2018-02-27T23:34:20.104Z,-1.90
2018-02-27T23:37:21.341Z,-2.00
2018-02-27T23:40:23.345Z,-2.00
2018-02-27T23:43:24.563Z,-2.00
2018-02-27T23:46:25.821Z,-2.00
2018-02-27T23:49:27.052Z,-2.00
2018-02-27T23:52:28.273Z,-2.00
2018-02-27T23:55:29.502Z,-2.00
2018-02-27T23:58:30.857Z,-1.90
